DLH1FL BIKF-EDDF
Flight info
| Callsign | DLH1FL |
|---|---|
| Flight time | N/A |
| Altitude | 33000 |
| Route | OSKUM3D OSKUM DCT RATSU/N0436F330 DCT DEVBI DCT LONAM DCT SOGPO DCT DIXAT DIXAT1A |
| Aircraft | A321/M-SDE3FGHIRWY/LB1 |
Departure
| Time | 2026-05-03 20:47 |
|---|---|
| Airport | Keflavik International Airport (BIKF) |
Arrival
| Time | N/A |
|---|---|
| Airport | Frankfurt Main Airport (EDDF) |
| Time | Latitude | Longitude | Altitude | Speed | Heading |
|---|---|---|---|---|---|
| 2026-05-03 20:15 | 63.99273 | -22.62572 | 139 ft | 0 kts | 51° |
| 2026-05-03 20:33 | 63.99262 | -22.62602 | 142 ft | 3 kts | 51° |
| 2026-05-03 20:33 | 63.99251 | -22.62633 | 142 ft | 2 kts | 51° |
| 2026-05-03 20:34 | 63.99238 | -22.62663 | 142 ft | 3 kts | 24° |
| 2026-05-03 20:34 | 63.99219 | -22.62675 | 142 ft | 3 kts | 1° |
| 2026-05-03 20:34 | 63.99200 | -22.62675 | 142 ft | 2 kts | 0° |
| 2026-05-03 20:34 | 63.99183 | -22.62677 | 142 ft | 3 kts | 27° |
| 2026-05-03 20:35 | 63.99172 | -22.62702 | 144 ft | 3 kts | 78° |
| 2026-05-03 20:35 | 63.99170 | -22.62747 | 142 ft | 3 kts | 95° |
| 2026-05-03 20:35 | 63.99172 | -22.62792 | 142 ft | 3 kts | 92° |
| 2026-05-03 20:35 | 63.99172 | -22.62836 | 142 ft | 3 kts | 90° |
| 2026-05-03 20:36 | 63.99172 | -22.62882 | 142 ft | 3 kts | 90° |
| 2026-05-03 20:36 | 63.99172 | -22.62916 | 142 ft | 0 kts | 90° |
| 2026-05-03 20:38 | 63.99172 | -22.62912 | 142 ft | 1 kts | 90° |
| 2026-05-03 20:38 | 63.99172 | -22.62862 | 142 ft | 5 kts | 90° |
| 2026-05-03 20:38 | 63.99172 | -22.62743 | 142 ft | 10 kts | 90° |
| 2026-05-03 20:38 | 63.99172 | -22.62558 | 142 ft | 14 kts | 90° |
| 2026-05-03 20:39 | 63.99172 | -22.62308 | 142 ft | 18 kts | 90° |
| 2026-05-03 20:39 | 63.99173 | -22.61997 | 142 ft | 21 kts | 89° |
| 2026-05-03 20:39 | 63.99173 | -22.61662 | 147 ft | 20 kts | 89° |
| 2026-05-03 20:39 | 63.99173 | -22.61375 | 154 ft | 17 kts | 90° |
| 2026-05-03 20:40 | 63.99173 | -22.61104 | 160 ft | 17 kts | 90° |
| 2026-05-03 20:40 | 63.99173 | -22.60834 | 166 ft | 17 kts | 90° |
| 2026-05-03 20:40 | 63.99173 | -22.60594 | 174 ft | 14 kts | 90° |
| 2026-05-03 20:40 | 63.99173 | -22.60365 | 175 ft | 15 kts | 90° |
| 2026-05-03 20:41 | 63.99173 | -22.60115 | 176 ft | 16 kts | 90° |
| 2026-05-03 20:41 | 63.99116 | -22.59904 | 176 ft | 16 kts | 136° |
| 2026-05-03 20:41 | 63.99035 | -22.59727 | 176 ft | 16 kts | 136° |
| 2026-05-03 20:41 | 63.98962 | -22.59562 | 180 ft | 14 kts | 135° |
| 2026-05-03 20:42 | 63.98889 | -22.59406 | 177 ft | 16 kts | 147° |
| 2026-05-03 20:42 | 63.98774 | -22.59320 | 173 ft | 19 kts | 163° |
| 2026-05-03 20:42 | 63.98660 | -22.59296 | 177 ft | 7 kts | 180° |
| 2026-05-03 20:42 | 63.98623 | -22.59296 | 178 ft | 0 kts | 180° |
| 2026-05-03 20:45 | 63.98619 | -22.59296 | 178 ft | 1 kts | 180° |
| 2026-05-03 20:45 | 63.98598 | -22.59295 | 179 ft | 3 kts | 180° |
| 2026-05-03 20:45 | 63.98579 | -22.59295 | 180 ft | 5 kts | 180° |
| 2026-05-03 20:46 | 63.98533 | -22.59296 | 179 ft | 7 kts | 180° |
| 2026-05-03 20:46 | 63.98505 | -22.59375 | 181 ft | 7 kts | 265° |
| 2026-05-03 20:46 | 63.98504 | -22.59393 | 181 ft | 1 kts | 269° |
| 2026-05-03 20:46 | 63.98504 | -22.59643 | 181 ft | 47 kts | 270° |
| 2026-05-03 20:47 | 63.98505 | -22.60928 | 170 ft | 113 kts | 270° |
| 2026-05-03 20:47 | 63.98499 | -22.63169 | 226 ft | 160 kts | 272° |
| 2026-05-03 20:47 | 63.98494 | -22.65647 | 1029 ft | 155 kts | 276° |
| 2026-05-03 20:47 | 63.98496 | -22.68136 | 1561 ft | 166 kts | 275° |
| 2026-05-03 20:48 | 63.98506 | -22.70922 | 1837 ft | 185 kts | 274° |
| 2026-05-03 20:48 | 63.98513 | -22.73992 | 2179 ft | 199 kts | 275° |
| 2026-05-03 20:48 | 63.98410 | -22.77197 | 2609 ft | 211 kts | 256° |
| 2026-05-03 20:48 | 63.97429 | -22.79790 | 3054 ft | 231 kts | 211° |
| 2026-05-03 20:49 | 63.95797 | -22.80633 | 3309 ft | 255 kts | 185° |
| 2026-05-03 20:49 | 63.94014 | -22.80583 | 3875 ft | 261 kts | 178° |
| 2026-05-03 20:49 | 63.92206 | -22.79886 | 4514 ft | 268 kts | 155° |
| 2026-05-03 20:49 | 63.90783 | -22.77149 | 5105 ft | 272 kts | 123° |
| 2026-05-03 20:50 | 63.90058 | -22.73128 | 5576 ft | 278 kts | 95° |
| 2026-05-03 20:50 | 63.89897 | -22.68719 | 6204 ft | 283 kts | 91° |
| 2026-05-03 20:50 | 63.89775 | -22.64284 | 6797 ft | 288 kts | 91° |
| 2026-05-03 20:50 | 63.89656 | -22.59698 | 7381 ft | 293 kts | 90° |
| 2026-05-03 20:51 | 63.89539 | -22.55035 | 7956 ft | 298 kts | 90° |
| 2026-05-03 20:51 | 63.89421 | -22.50279 | 8539 ft | 304 kts | 90° |
| 2026-05-03 20:51 | 63.89299 | -22.45437 | 9146 ft | 309 kts | 90° |
| 2026-05-03 20:51 | 63.89172 | -22.40578 | 9707 ft | 315 kts | 90° |
| 2026-05-03 20:52 | 63.89035 | -22.35566 | 10225 ft | 322 kts | 90° |
| 2026-05-03 20:52 | 63.88887 | -22.30336 | 10325 ft | 343 kts | 90° |
| 2026-05-03 20:52 | 63.88726 | -22.24779 | 10451 ft | 361 kts | 90° |
| 2026-05-03 20:52 | 63.88553 | -22.18940 | 10636 ft | 376 kts | 91° |
| 2026-05-03 20:53 | 63.88376 | -22.13046 | 11053 ft | 382 kts | 91° |
| 2026-05-03 20:53 | 63.88190 | -22.06972 | 11539 ft | 387 kts | 91° |
| 2026-05-03 20:53 | 63.88001 | -22.00834 | 11997 ft | 392 kts | 91° |
| 2026-05-03 20:53 | 63.87806 | -21.94618 | 12482 ft | 397 kts | 91° |
| 2026-05-03 20:54 | 63.87604 | -21.88310 | 12951 ft | 402 kts | 91° |
| 2026-05-03 20:54 | 63.87189 | -21.75579 | 13835 ft | 411 kts | 91° |
| 2026-05-03 20:54 | 63.86972 | -21.69071 | 14241 ft | 416 kts | 91° |
| 2026-05-03 20:55 | 63.86752 | -21.62486 | 14669 ft | 420 kts | 91° |
| 2026-05-03 20:55 | 63.86529 | -21.55858 | 15095 ft | 423 kts | 91° |
| 2026-05-03 20:55 | 63.86303 | -21.49173 | 15531 ft | 427 kts | 91° |
| 2026-05-03 20:55 | 63.86068 | -21.42417 | 15931 ft | 432 kts | 91° |
| 2026-05-03 20:56 | 63.85825 | -21.35568 | 16347 ft | 436 kts | 91° |
| 2026-05-03 20:56 | 63.85577 | -21.28690 | 16753 ft | 440 kts | 91° |
| 2026-05-03 20:56 | 63.85323 | -21.21845 | 17157 ft | 443 kts | 91° |
| 2026-05-03 20:56 | 63.85058 | -21.14834 | 17574 ft | 447 kts | 92° |
| 2026-05-03 20:57 | 63.84526 | -21.07819 | 17975 ft | 454 kts | 103° |
| 2026-05-03 20:57 | 63.83504 | -21.01007 | 18340 ft | 459 kts | 114° |
| 2026-05-03 20:57 | 63.82112 | -20.94449 | 18664 ft | 463 kts | 116° |
| 2026-05-03 20:57 | 63.80712 | -20.87970 | 18991 ft | 466 kts | 116° |
| 2026-05-03 20:58 | 63.79289 | -20.81357 | 19268 ft | 469 kts | 116° |
| 2026-05-03 20:58 | 63.77855 | -20.74703 | 19653 ft | 470 kts | 116° |
| 2026-05-03 20:58 | 63.76413 | -20.68042 | 20006 ft | 473 kts | 116° |
| 2026-05-03 20:58 | 63.75924 | -20.65791 | 20112 ft | 474 kts | 116° |